PIA92 OPKC-OOMS
Flight info
| Callsign | PIA92 |
|---|---|
| Flight time | N/A |
| Altitude | 34000 |
| Route | MELOM1G MELOM A454 VUSET T500 MCT DCT |
| Aircraft | B77W/H-SDE1E2E3FGHIJ2J3J4J5M1RWXY/LB1D1 |
Departure
| Time | N/A |
|---|---|
| Airport | Jinnah International Airport (OPKC) |
Arrival
| Time | 2026-04-28 16:20 |
|---|---|
| Airport | Muscat International Airport (OOMS) |
| Time | Latitude | Longitude | Altitude | Speed | Heading |
|---|---|---|---|---|---|
| 2026-04-28 15:31 | 25.18672 | 64.01061 | 33693 ft | 471 kts | 257° |
| 2026-04-28 15:31 | 25.16722 | 63.94180 | 33687 ft | 472 kts | 257° |
| 2026-04-28 15:32 | 25.14776 | 63.87324 | 33682 ft | 472 kts | 257° |
| 2026-04-28 15:32 | 25.12810 | 63.80416 | 33681 ft | 471 kts | 257° |
| 2026-04-28 15:33 | 25.10854 | 63.73550 | 33684 ft | 473 kts | 257° |
| 2026-04-28 15:33 | 25.08879 | 63.66637 | 33677 ft | 471 kts | 257° |
| 2026-04-28 15:34 | 25.06905 | 63.59738 | 33677 ft | 473 kts | 257° |
| 2026-04-28 15:34 | 25.04928 | 63.52842 | 33676 ft | 473 kts | 256° |
| 2026-04-28 15:35 | 25.02945 | 63.45939 | 33677 ft | 472 kts | 257° |
| 2026-04-28 15:35 | 24.99981 | 63.35645 | 33677 ft | 471 kts | 257° |
| 2026-04-28 15:36 | 24.97991 | 63.28750 | 33690 ft | 471 kts | 256° |
| 2026-04-28 15:36 | 24.96005 | 63.21880 | 33689 ft | 475 kts | 256° |
| 2026-04-28 15:37 | 24.94007 | 63.14983 | 33680 ft | 474 kts | 256° |
| 2026-04-28 15:37 | 24.92001 | 63.08074 | 33670 ft | 474 kts | 256° |
| 2026-04-28 15:38 | 24.90000 | 63.01194 | 33669 ft | 474 kts | 256° |
| 2026-04-28 15:38 | 24.87987 | 62.94289 | 33661 ft | 474 kts | 256° |
| 2026-04-28 15:39 | 24.85967 | 62.87367 | 33663 ft | 476 kts | 256° |
| 2026-04-28 15:39 | 24.83948 | 62.80464 | 33671 ft | 476 kts | 256° |
| 2026-04-28 15:40 | 24.81920 | 62.73547 | 33667 ft | 473 kts | 256° |
| 2026-04-28 15:40 | 24.79894 | 62.66645 | 33670 ft | 477 kts | 256° |
| 2026-04-28 15:41 | 24.77858 | 62.59726 | 33674 ft | 474 kts | 256° |
| 2026-04-28 15:41 | 24.75841 | 62.52883 | 33672 ft | 474 kts | 256° |
| 2026-04-28 15:42 | 24.73806 | 62.45990 | 33673 ft | 474 kts | 256° |
| 2026-04-28 15:42 | 24.71767 | 62.39096 | 33675 ft | 474 kts | 256° |
| 2026-04-28 15:43 | 24.69730 | 62.32223 | 33689 ft | 473 kts | 255° |
| 2026-04-28 15:43 | 24.67699 | 62.25384 | 33690 ft | 475 kts | 256° |
| 2026-04-28 15:44 | 24.65643 | 62.18471 | 33692 ft | 476 kts | 255° |
| 2026-04-28 15:44 | 24.63593 | 62.11592 | 33697 ft | 474 kts | 255° |
| 2026-04-28 15:45 | 24.61551 | 62.04756 | 33699 ft | 475 kts | 255° |
| 2026-04-28 15:45 | 24.59489 | 61.97862 | 33698 ft | 473 kts | 255° |
| 2026-04-28 15:46 | 24.57427 | 61.90980 | 33697 ft | 476 kts | 255° |
| 2026-04-28 15:46 | 24.55369 | 61.84129 | 33693 ft | 475 kts | 255° |
| 2026-04-28 15:47 | 24.53300 | 61.77253 | 33691 ft | 473 kts | 255° |
| 2026-04-28 15:47 | 24.51240 | 61.70416 | 33700 ft | 476 kts | 255° |
| 2026-04-28 15:48 | 24.49168 | 61.63553 | 33698 ft | 474 kts | 255° |
| 2026-04-28 15:48 | 24.47093 | 61.56690 | 33696 ft | 475 kts | 255° |
| 2026-04-28 15:49 | 24.45013 | 61.49828 | 33694 ft | 473 kts | 255° |
| 2026-04-28 15:49 | 24.42939 | 61.42995 | 33692 ft | 475 kts | 255° |
| 2026-04-28 15:50 | 24.40852 | 61.36131 | 33688 ft | 474 kts | 255° |
| 2026-04-28 15:50 | 24.38972 | 61.29245 | 33703 ft | 472 kts | 261° |
| 2026-04-28 15:51 | 24.37590 | 61.22216 | 33701 ft | 472 kts | 261° |
| 2026-04-28 15:51 | 24.36179 | 61.15194 | 33705 ft | 472 kts | 260° |
| 2026-04-28 15:52 | 24.34741 | 61.08179 | 33704 ft | 472 kts | 260° |
| 2026-04-28 15:52 | 24.33293 | 61.01186 | 33704 ft | 473 kts | 260° |
| 2026-04-28 15:53 | 24.31831 | 60.94181 | 33707 ft | 474 kts | 260° |
| 2026-04-28 15:53 | 24.30361 | 60.87165 | 33705 ft | 470 kts | 260° |
| 2026-04-28 15:54 | 24.28882 | 60.80133 | 33710 ft | 472 kts | 260° |
| 2026-04-28 15:54 | 24.27415 | 60.73181 | 33719 ft | 472 kts | 260° |
| 2026-04-28 15:55 | 24.25967 | 60.66349 | 33715 ft | 448 kts | 260° |
| 2026-04-28 15:55 | 24.24568 | 60.59748 | 33720 ft | 446 kts | 260° |
| 2026-04-28 15:56 | 24.23165 | 60.53146 | 33714 ft | 444 kts | 260° |
| 2026-04-28 15:56 | 24.21766 | 60.46571 | 33711 ft | 448 kts | 260° |
| 2026-04-28 15:57 | 24.20355 | 60.39967 | 33708 ft | 445 kts | 260° |
| 2026-04-28 15:57 | 24.18937 | 60.33338 | 33719 ft | 446 kts | 260° |
| 2026-04-28 15:58 | 24.17529 | 60.26774 | 33726 ft | 446 kts | 259° |
| 2026-04-28 15:58 | 24.16116 | 60.20202 | 33674 ft | 441 kts | 259° |
| 2026-04-28 15:59 | 24.15412 | 60.16938 | 32991 ft | 440 kts | 260° |
| 2026-04-28 15:59 | 24.14711 | 60.13684 | 31999 ft | 445 kts | 260° |
| 2026-04-28 15:59 | 24.13998 | 60.10376 | 31273 ft | 448 kts | 260° |
| 2026-04-28 15:59 | 24.13290 | 60.07094 | 30494 ft | 451 kts | 259° |
| 2026-04-28 16:00 | 24.12570 | 60.03764 | 29936 ft | 448 kts | 258° |
| 2026-04-28 16:00 | 24.11853 | 60.00456 | 29410 ft | 444 kts | 258° |
| 2026-04-28 16:00 | 24.11152 | 59.97223 | 28838 ft | 441 kts | 258° |
| 2026-04-28 16:00 | 24.10445 | 59.93965 | 28202 ft | 438 kts | 258° |
| 2026-04-28 16:01 | 24.09745 | 59.90743 | 27617 ft | 434 kts | 258° |
| 2026-04-28 16:01 | 24.09052 | 59.87559 | 27055 ft | 429 kts | 258° |
| 2026-04-28 16:01 | 24.08371 | 59.84431 | 26501 ft | 425 kts | 258° |
| 2026-04-28 16:01 | 24.07691 | 59.81312 | 25943 ft | 421 kts | 258° |
| 2026-04-28 16:02 | 24.07011 | 59.78194 | 25383 ft | 418 kts | 258° |
| 2026-04-28 16:02 | 24.06343 | 59.75135 | 24828 ft | 414 kts | 258° |
| 2026-04-28 16:02 | 24.05671 | 59.72060 | 24264 ft | 411 kts | 258° |
| 2026-04-28 16:02 | 24.05007 | 59.69029 | 23699 ft | 407 kts | 258° |
| 2026-04-28 16:03 | 24.04352 | 59.66035 | 23148 ft | 404 kts | 258° |
| 2026-04-28 16:03 | 24.03702 | 59.63071 | 22590 ft | 401 kts | 258° |
| 2026-04-28 16:03 | 24.03052 | 59.60111 | 22014 ft | 399 kts | 258° |
| 2026-04-28 16:03 | 24.02410 | 59.57188 | 21453 ft | 396 kts | 258° |
| 2026-04-28 16:04 | 24.01770 | 59.54274 | 20890 ft | 393 kts | 258° |
| 2026-04-28 16:04 | 24.01133 | 59.51380 | 20334 ft | 390 kts | 258° |
| 2026-04-28 16:04 | 24.00507 | 59.48539 | 19781 ft | 388 kts | 258° |
| 2026-04-28 16:04 | 23.99879 | 59.45689 | 19221 ft | 385 kts | 258° |
| 2026-04-28 16:05 | 23.99252 | 59.42850 | 18661 ft | 383 kts | 257° |
| 2026-04-28 16:05 | 23.98633 | 59.40049 | 18107 ft | 380 kts | 257° |
| 2026-04-28 16:05 | 23.98016 | 59.37258 | 17548 ft | 378 kts | 257° |
| 2026-04-28 16:05 | 23.97400 | 59.34474 | 16977 ft | 376 kts | 257° |
| 2026-04-28 16:06 | 23.96791 | 59.31724 | 16456 ft | 373 kts | 257° |
| 2026-04-28 16:06 | 23.96184 | 59.28987 | 15938 ft | 371 kts | 257° |
| 2026-04-28 16:06 | 23.95580 | 59.26265 | 15365 ft | 371 kts | 257° |
| 2026-04-28 16:06 | 23.94972 | 59.23529 | 14793 ft | 370 kts | 257° |
| 2026-04-28 16:07 | 23.94373 | 59.20831 | 14227 ft | 368 kts | 257° |
| 2026-04-28 16:07 | 23.93763 | 59.18091 | 13660 ft | 367 kts | 257° |
| 2026-04-28 16:07 | 23.92293 | 59.12811 | 12559 ft | 365 kts | 245° |
| 2026-04-28 16:08 | 23.91138 | 59.10376 | 11986 ft | 364 kts | 243° |
| 2026-04-28 16:08 | 23.89936 | 59.07951 | 11403 ft | 363 kts | 242° |
| 2026-04-28 16:08 | 23.88734 | 59.05535 | 10852 ft | 361 kts | 242° |
| 2026-04-28 16:09 | 23.86392 | 59.00837 | 10331 ft | 339 kts | 242° |
| 2026-04-28 16:09 | 23.85286 | 58.98619 | 10250 ft | 326 kts | 242° |
| 2026-04-28 16:09 | 23.84212 | 58.96466 | 10114 ft | 315 kts | 242° |
| 2026-04-28 16:10 | 23.82204 | 58.92444 | 9981 ft | 288 kts | 242° |
| 2026-04-28 16:10 | 23.81256 | 58.90545 | 9770 ft | 282 kts | 242° |
| 2026-04-28 16:10 | 23.79378 | 58.86785 | 8983 ft | 283 kts | 243° |
| 2026-04-28 16:11 | 23.77495 | 58.83020 | 8269 ft | 282 kts | 243° |
| 2026-04-28 16:11 | 23.75620 | 58.79272 | 7562 ft | 280 kts | 243° |
| 2026-04-28 16:12 | 23.73761 | 58.75559 | 6854 ft | 280 kts | 244° |
| 2026-04-28 16:12 | 23.72829 | 58.73700 | 6516 ft | 279 kts | 244° |
| 2026-04-28 16:13 | 23.70969 | 58.69991 | 5856 ft | 277 kts | 245° |
| 2026-04-28 16:13 | 23.70054 | 58.68167 | 5531 ft | 277 kts | 245° |
| 2026-04-28 16:13 | 23.68207 | 58.64486 | 4832 ft | 276 kts | 245° |
| 2026-04-28 16:14 | 23.66371 | 58.60833 | 4202 ft | 273 kts | 245° |
| 2026-04-28 16:14 | 23.64590 | 58.57294 | 3971 ft | 255 kts | 245° |
| 2026-04-28 16:15 | 23.62958 | 58.54048 | 3793 ft | 236 kts | 245° |
| 2026-04-28 16:15 | 23.62179 | 58.52502 | 3682 ft | 228 kts | 245° |
| 2026-04-28 16:15 | 23.61466 | 58.50954 | 3405 ft | 226 kts | 254° |
| 2026-04-28 16:16 | 23.60835 | 58.47750 | 2901 ft | 206 kts | 268° |
| 2026-04-28 16:16 | 23.60704 | 58.46253 | 2666 ft | 189 kts | 269° |
| 2026-04-28 16:17 | 23.60517 | 58.43643 | 2259 ft | 158 kts | 271° |
| 2026-04-28 16:17 | 23.60429 | 58.42475 | 2074 ft | 153 kts | 271° |
| 2026-04-28 16:17 | 23.60340 | 58.41335 | 1890 ft | 151 kts | 270° |
| 2026-04-28 16:17 | 23.60247 | 58.40190 | 1702 ft | 150 kts | 271° |
| 2026-04-28 16:18 | 23.60159 | 58.39067 | 1516 ft | 149 kts | 270° |
| 2026-04-28 16:18 | 23.60070 | 58.37941 | 1324 ft | 149 kts | 270° |
| 2026-04-28 16:18 | 23.59980 | 58.36823 | 1136 ft | 148 kts | 269° |
| 2026-04-28 16:18 | 23.59891 | 58.35712 | 947 ft | 147 kts | 268° |
| 2026-04-28 16:19 | 23.59761 | 58.34608 | 716 ft | 149 kts | 262° |
| 2026-04-28 16:19 | 23.59632 | 58.33495 | 466 ft | 147 kts | 269° |
| 2026-04-28 16:19 | 23.59577 | 58.32388 | 286 ft | 147 kts | 266° |
| 2026-04-28 16:19 | 23.59501 | 58.31283 | 202 ft | 145 kts | 266° |
| 2026-04-28 16:20 | 23.59415 | 58.30163 | 164 ft | 155 kts | 264° |
| 2026-04-28 16:20 | 23.59358 | 58.29053 | 69 ft | 131 kts | 263° |
| 2026-04-28 16:20 | 23.59293 | 58.28200 | 69 ft | 89 kts | 265° |
| 2026-04-28 16:20 | 23.59266 | 58.27830 | 69 ft | 5 kts | 259° |
| 2026-04-28 16:21 | 23.59248 | 58.27755 | 69 ft | 18 kts | 265° |
| 2026-04-28 16:21 | 23.59235 | 58.27529 | 70 ft | 44 kts | 265° |